Dayton, Ohio
Current Conditions -  °F | °C
As of 11:18 AM on Tuesday 21 Oct 2014 (Local Time) from KFFO Reporting Station
Broken Clouds Broken Clouds  
Wind Chill: 11°   Ceiling: 1900
Heat Index: 11°   Visibility: 10mi
Dew Point:   Wind: 12mph
Humidity: 71%   Direction: 310°NW
Pressure: 30.02"   Gusts: NA
Location:  39.76°N, 84.19°W
Report Text: KFFO 211518Z 31010KT 10SM BKN019 BKN045 11/06 A3002 RMK AO2A SLP168
Loading
Personal Weather Stations






























Interactive Weather Map New forecast layout! Learn more

10-Day Weather Forecast

Advertisements
Track Severe Weather on mobile